sensor_id;sensor_type;location;lat;lon;timestamp;pressure;altitude;pressure_sealevel;temperature;humidity
5879;BME280;2965;42.640;23.370;2022-11-20T05:01:06;93823.38;;;17.97;96.77
5879;BME280;2965;42.640;23.370;2022-11-20T05:03:32;93820.59;;;17.86;97.42
5879;BME280;2965;42.640;23.370;2022-11-20T05:06:02;93803.19;;;17.90;98.75
5879;BME280;2965;42.640;23.370;2022-11-20T05:08:29;93815.25;;;17.81;100.00
5879;BME280;2965;42.640;23.370;2022-11-20T05:10:59;93826.69;;;17.70;100.00
5879;BME280;2965;42.640;23.370;2022-11-20T05:13:25;93819.09;;;17.57;100.00
5879;BME280;2965;42.640;23.370;2022-11-20T05:15:50;93806.59;;;17.52;100.00
5879;BME280;2965;42.640;23.370;2022-11-20T05:18:15;93796.34;;;17.56;100.00
5879;BME280;2965;42.640;23.370;2022-11-20T05:20:41;93798.13;;;17.50;100.00
5879;BME280;2965;42.640;23.370;2022-11-20T05:23:06;93811.63;;;17.32;100.00
5879;BME280;2965;42.640;23.370;2022-11-20T05:25:31;93794.97;;;17.31;100.00
5879;BME280;2965;42.640;23.370;2022-11-20T05:27:57;93787.97;;;17.25;100.00
5879;BME280;2965;42.640;23.370;2022-11-20T05:30:22;93778.38;;;17.19;100.00
5879;BME280;2965;42.640;23.370;2022-11-20T05:32:47;93765.03;;;17.09;100.00
5879;BME280;2965;42.640;23.370;2022-11-20T05:35:13;93759.75;;;16.92;100.00
5879;BME280;2965;42.640;23.370;2022-11-20T05:37:38;93776.69;;;16.79;100.00
5879;BME280;2965;42.640;23.370;2022-11-20T05:40:04;93785.88;;;16.77;100.00
5879;BME280;2965;42.640;23.370;2022-11-20T05:42:30;93779.63;;;16.66;100.00
5879;BME280;2965;42.640;23.370;2022-11-20T05:45:00;93775.19;;;16.55;100.00
5879;BME280;2965;42.640;23.370;2022-11-20T05:47:27;93786.63;;;16.44;100.00
5879;BME280;2965;42.640;23.370;2022-11-20T05:49:53;93772.41;;;16.33;100.00
5879;BME280;2965;42.640;23.370;2022-11-20T05:52:19;93756.16;;;16.24;100.00
5879;BME280;2965;42.640;23.370;2022-11-20T05:54:45;93738.66;;;16.18;100.00
5879;BME280;2965;42.640;23.370;2022-11-20T05:57:10;93755.44;;;16.12;100.00
5879;BME280;2965;42.640;23.370;2022-11-20T05:59:35;93747.28;;;16.13;100.00
5879;BME280;2965;42.640;23.370;2022-11-20T06:02:01;93762.75;;;16.10;100.00
5879;BME280;2965;42.640;23.370;2022-11-20T06:04:26;93771.25;;;16.12;100.00
5879;BME280;2965;42.640;23.370;2022-11-20T06:06:51;93766.00;;;16.12;100.00
5879;BME280;2965;42.640;23.370;2022-11-20T06:09:17;93777.66;;;16.16;100.00
5879;BME280;2965;42.640;23.370;2022-11-20T06:11:42;93773.41;;;16.15;100.00
5879;BME280;2965;42.640;23.370;2022-11-20T06:14:07;93780.88;;;16.18;100.00
5879;BME280;2965;42.640;23.370;2022-11-20T06:16:33;93784.06;;;16.20;100.00
5879;BME280;2965;42.640;23.370;2022-11-20T06:18:58;93776.56;;;16.29;100.00
5879;BME280;2965;42.640;23.370;2022-11-20T06:21:23;93784.25;;;16.30;100.00
5879;BME280;2965;42.640;23.370;2022-11-20T06:23:50;93782.19;;;16.32;100.00
5879;BME280;2965;42.640;23.370;2022-11-20T06:26:18;93787.94;;;16.29;100.00
5879;BME280;2965;42.640;23.370;2022-11-20T06:28:44;93793.41;;;16.39;100.00
5879;BME280;2965;42.640;23.370;2022-11-20T06:31:12;93795.47;;;16.37;100.00
5879;BME280;2965;42.640;23.370;2022-11-20T06:33:39;93809.38;;;16.33;100.00
5879;BME280;2965;42.640;23.370;2022-11-20T06:36:04;93798.22;;;16.43;100.00
5879;BME280;2965;42.640;23.370;2022-11-20T06:38:30;93806.22;;;16.48;100.00
5879;BME280;2965;42.640;23.370;2022-11-20T06:40:55;93800.00;;;16.54;100.00
5879;BME280;2965;42.640;23.370;2022-11-20T06:43:21;93802.25;;;16.62;100.00
5879;BME280;2965;42.640;23.370;2022-11-20T06:45:54;93799.69;;;16.67;100.00
5879;BME280;2965;42.640;23.370;2022-11-20T06:48:22;93797.50;;;16.76;100.00
5879;BME280;2965;42.640;23.370;2022-11-20T06:50:47;93799.81;;;16.72;100.00
5879;BME280;2965;42.640;23.370;2022-11-20T06:53:13;93813.94;;;16.66;100.00
5879;BME280;2965;42.640;23.370;2022-11-20T06:55:42;93810.44;;;16.77;100.00
5879;BME280;2965;42.640;23.370;2022-11-20T06:58:09;93807.44;;;16.85;100.00
5879;BME280;2965;42.640;23.370;2022-11-20T07:00:34;93813.69;;;16.96;100.00
5879;BME280;2965;42.640;23.370;2022-11-20T07:03:03;93819.69;;;17.08;100.00
5879;BME280;2965;42.640;23.370;2022-11-20T07:05:28;93838.03;;;17.15;100.00
5879;BME280;2965;42.640;23.370;2022-11-20T07:07:56;93835.94;;;17.17;100.00
5879;BME280;2965;42.640;23.370;2022-11-20T07:10:21;93837.06;;;17.21;100.00
5879;BME280;2965;42.640;23.370;2022-11-20T07:12:51;93813.00;;;17.56;100.00
5879;BME280;2965;42.640;23.370;2022-11-20T07:15:17;93826.94;;;17.69;100.00
5879;BME280;2965;42.640;23.370;2022-11-20T07:17:43;93829.69;;;17.74;100.00
5879;BME280;2965;42.640;23.370;2022-11-20T07:20:09;93832.09;;;17.75;100.00
5879;BME280;2965;42.640;23.370;2022-11-20T07:22:34;93834.69;;;18.14;100.00
5879;BME280;2965;42.640;23.370;2022-11-20T07:25:00;93827.94;;;18.23;100.00
5879;BME280;2965;42.640;23.370;2022-11-20T07:27:25;93842.16;;;17.95;100.00
5879;BME280;2965;42.640;23.370;2022-11-20T07:29:51;93835.06;;;17.62;100.00
5879;BME280;2965;42.640;23.370;2022-11-20T07:32:16;93837.53;;;17.69;100.00
5879;BME280;2965;42.640;23.370;2022-11-20T07:34:41;93845.31;;;17.42;100.00
5879;BME280;2965;42.640;23.370;2022-11-20T07:37:07;93835.28;;;17.44;100.00
5879;BME280;2965;42.640;23.370;2022-11-20T07:39:32;93827.28;;;17.38;100.00
5879;BME280;2965;42.640;23.370;2022-11-20T07:41:57;93835.47;;;17.54;100.00
5879;BME280;2965;42.640;23.370;2022-11-20T07:44:23;93833.28;;;17.51;100.00
5879;BME280;2965;42.640;23.370;2022-11-20T07:46:48;93832.09;;;17.58;100.00
5879;BME280;2965;42.640;23.370;2022-11-20T07:49:13;93835.13;;;17.67;100.00
5879;BME280;2965;42.640;23.370;2022-11-20T07:51:39;93841.63;;;17.76;100.00
5879;BME280;2965;42.640;23.370;2022-11-20T07:54:04;93838.31;;;17.69;100.00
5879;BME280;2965;42.640;23.370;2022-11-20T07:56:29;93831.91;;;17.65;100.00
5879;BME280;2965;42.640;23.370;2022-11-20T07:58:55;93838.31;;;17.69;100.00
5879;BME280;2965;42.640;23.370;2022-11-20T08:01:20;93842.50;;;17.65;100.00
5879;BME280;2965;42.640;23.370;2022-11-20T08:03:46;93842.50;;;17.65;100.00
5879;BME280;2965;42.640;23.370;2022-11-20T08:06:11;93848.75;;;17.59;100.00
5879;BME280;2965;42.640;23.370;2022-11-20T08:08:36;93838.19;;;17.76;100.00
5879;BME280;2965;42.640;23.370;2022-11-20T08:11:04;93836.88;;;17.78;100.00
5879;BME280;2965;42.640;23.370;2022-11-20T08:13:53;93834.94;;;17.90;100.00
5879;BME280;2965;42.640;23.370;2022-11-20T08:16:36;93825.78;;;17.98;100.00
5879;BME280;2965;42.640;23.370;2022-11-20T08:19:02;93830.94;;;18.10;100.00
5879;BME280;2965;42.640;23.370;2022-11-20T08:21:28;93832.41;;;18.01;100.00
5879;BME280;2965;42.640;23.370;2022-11-20T08:23:53;93839.41;;;18.07;100.00
5879;BME280;2965;42.640;23.370;2022-11-20T08:26:18;93841.97;;;18.02;100.00
5879;BME280;2965;42.640;23.370;2022-11-20T08:28:44;93853.16;;;18.09;100.00
5879;BME280;2965;42.640;23.370;2022-11-20T08:31:10;93848.97;;;18.13;100.00
5879;BME280;2965;42.640;23.370;2022-11-20T08:33:35;93846.53;;;18.28;100.00
5879;BME280;2965;42.640;23.370;2022-11-20T08:36:02;93850.63;;;18.41;100.00
5879;BME280;2965;42.640;23.370;2022-11-20T08:38:29;93859.19;;;18.48;100.00
5879;BME280;2965;42.640;23.370;2022-11-20T08:40:59;93842.88;;;18.56;100.00
5879;BME280;2965;42.640;23.370;2022-11-20T08:43:44;93863.50;;;18.54;100.00
5879;BME280;2965;42.640;23.370;2022-11-20T08:46:10;93865.25;;;18.44;100.00
5879;BME280;2965;42.640;23.370;2022-11-20T08:48:35;93889.81;;;18.39;100.00
5879;BME280;2965;42.640;23.370;2022-11-20T08:51:00;93896.69;;;18.40;99.47
5879;BME280;2965;42.640;23.370;2022-11-20T08:53:27;93902.31;;;18.44;100.00
5879;BME280;2965;42.640;23.370;2022-11-20T08:55:52;93897.13;;;18.54;100.00
5879;BME280;2965;42.640;23.370;2022-11-20T08:58:18;93909.94;;;18.62;100.00
5879;BME280;2965;42.640;23.370;2022-11-20T09:00:43;93894.03;;;18.62;100.00
5879;BME280;2965;42.640;23.370;2022-11-20T09:03:08;93893.41;;;18.55;100.00
5879;BME280;2965;42.640;23.370;2022-11-20T09:05:34;93892.72;;;18.37;100.00
5879;BME280;2965;42.640;23.370;2022-11-20T09:07:59;93889.59;;;18.24;100.00
5879;BME280;2965;42.640;23.370;2022-11-20T09:10:25;93887.03;;;18.07;100.00
5879;BME280;2965;42.640;23.370;2022-11-20T09:12:52;93888.63;;;18.08;100.00
5879;BME280;2965;42.640;23.370;2022-11-20T09:15:17;93900.25;;;18.07;100.00
5879;BME280;2965;42.640;23.370;2022-11-20T09:17:50;93891.28;;;17.91;100.00
5879;BME280;2965;42.640;23.370;2022-11-20T09:20:16;93888.91;;;17.89;100.00
5879;BME280;2965;42.640;23.370;2022-11-20T09:22:41;93888.84;;;17.84;100.00
5879;BME280;2965;42.640;23.370;2022-11-20T09:25:07;93873.13;;;17.78;100.00
5879;BME280;2965;42.640;23.370;2022-11-20T09:27:32;93882.56;;;17.57;100.00
5879;BME280;2965;42.640;23.370;2022-11-20T09:29:58;93862.84;;;17.31;100.00
5879;BME280;2965;42.640;23.370;2022-11-20T09:32:23;93864.63;;;17.25;100.00
5879;BME280;2965;42.640;23.370;2022-11-20T09:34:48;93863.03;;;17.24;100.00
5879;BME280;2965;42.640;23.370;2022-11-20T09:37:14;93849.03;;;17.40;100.00
5879;BME280;2965;42.640;23.370;2022-11-20T09:39:39;93852.44;;;17.58;100.00
5879;BME280;2965;42.640;23.370;2022-11-20T10:04:21;93828.19;;;18.00;100.00
5879;BME280;2965;42.640;23.370;2022-11-20T10:09:29;93835.97;;;18.28;100.00
5879;BME280;2965;42.640;23.370;2022-11-20T10:22:33;93818.25;;;18.56;100.00
5879;BME280;2965;42.640;23.370;2022-11-20T10:25:19;93819.28;;;18.55;100.00
5879;BME280;2965;42.640;23.370;2022-11-20T10:30:18;93826.28;;;18.66;100.00
5879;BME280;2965;42.640;23.370;2022-11-20T10:32:54;93812.63;;;18.74;100.00
5879;BME280;2965;42.640;23.370;2022-11-20T10:35:28;93820.91;;;18.56;100.00
5879;BME280;2965;42.640;23.370;2022-11-20T10:38:02;93814.41;;;18.69;100.00
5879;BME280;2965;42.640;23.370;2022-11-20T10:40:32;93825.53;;;18.93;100.00
5879;BME280;2965;42.640;23.370;2022-11-20T10:43:38;93835.94;;;18.99;100.00
5879;BME280;2965;42.640;23.370;2022-11-20T10:46:08;93832.31;;;18.83;100.00
5879;BME280;2965;42.640;23.370;2022-11-20T10:48:36;93829.81;;;18.99;100.00
5879;BME280;2965;42.640;23.370;2022-11-20T10:54:16;93838.06;;;18.75;100.00
5879;BME280;2965;42.640;23.370;2022-11-20T10:56:51;93840.19;;;18.29;100.00
5879;BME280;2965;42.640;23.370;2022-11-20T11:07:10;93855.66;;;17.43;100.00
5879;BME280;2965;42.640;23.370;2022-11-20T11:09:43;93867.34;;;17.64;100.00
5879;BME280;2965;42.640;23.370;2022-11-20T11:12:09;93867.66;;;17.68;100.00
5879;BME280;2965;42.640;23.370;2022-11-20T11:14:43;93884.25;;;17.46;100.00
5879;BME280;2965;42.640;23.370;2022-11-20T11:19:39;93897.81;;;16.87;100.00
5879;BME280;2965;42.640;23.370;2022-11-20T11:22:10;93899.13;;;16.21;100.00
5879;BME280;2965;42.640;23.370;2022-11-20T11:24:51;93886.44;;;15.95;100.00
5879;BME280;2965;42.640;23.370;2022-11-20T11:27:17;93872.22;;;15.84;100.00
5879;BME280;2965;42.640;23.370;2022-11-20T11:29:42;93859.16;;;15.77;100.00
5879;BME280;2965;42.640;23.370;2022-11-20T11:34:37;93902.66;;;15.45;100.00
5879;BME280;2965;42.640;23.370;2022-11-20T11:37:02;93906.53;;;15.30;100.00
5879;BME280;2965;42.640;23.370;2022-11-20T11:39:30;93936.94;;;15.03;100.00
5879;BME280;2965;42.640;23.370;2022-11-20T11:41:57;93908.84;;;14.85;100.00
5879;BME280;2965;42.640;23.370;2022-11-20T11:47:46;93899.19;;;14.30;100.00
5879;BME280;2965;42.640;23.370;2022-11-20T11:50:19;93887.94;;;14.23;100.00
5879;BME280;2965;42.640;23.370;2022-11-20T11:53:15;93883.88;;;14.09;100.00
5879;BME280;2965;42.640;23.370;2022-11-20T11:56:08;93891.22;;;14.19;100.00
5879;BME280;2965;42.640;23.370;2022-11-20T11:58:46;93884.00;;;14.14;100.00
5879;BME280;2965;42.640;23.370;2022-11-20T12:04:02;93843.25;;;14.05;100.00
5879;BME280;2965;42.640;23.370;2022-11-20T12:06:31;93845.13;;;13.98;100.00
5879;BME280;2965;42.640;23.370;2022-11-20T12:08:59;93850.41;;;13.98;100.00
5879;BME280;2965;42.640;23.370;2022-11-20T12:13:58;93875.22;;;13.83;100.00
5879;BME280;2965;42.640;23.370;2022-11-20T12:16:32;93852.00;;;13.80;100.00
5879;BME280;2965;42.640;23.370;2022-11-20T12:18:59;93870.38;;;13.62;100.00
5879;BME280;2965;42.640;23.370;2022-11-20T12:21:37;93881.38;;;13.34;100.00
5879;BME280;2965;42.640;23.370;2022-11-20T12:29:59;93869.72;;;13.23;100.00
5879;BME280;2965;42.640;23.370;2022-11-20T12:38:18;93865.00;;;13.07;100.00
5879;BME280;2965;42.640;23.370;2022-11-20T12:43:47;93767.81;;;13.32;100.00
5879;BME280;2965;42.640;23.370;2022-11-20T12:49:12;93750.41;;;13.37;100.00
5879;BME280;2965;42.640;23.370;2022-11-20T12:52:11;93733.91;;;13.30;100.00
5879;BME280;2965;42.640;23.370;2022-11-20T13:05:26;93712.31;;;13.47;100.00
5879;BME280;2965;42.640;23.370;2022-11-20T13:07:53;93711.94;;;13.61;100.00
5879;BME280;2965;42.640;23.370;2022-11-20T13:13:35;93724.13;;;13.56;100.00
5879;BME280;2965;42.640;23.370;2022-11-20T13:16:11;93741.22;;;13.28;100.00
5879;BME280;2965;42.640;23.370;2022-11-20T13:18:40;93752.53;;;13.04;100.00
5879;BME280;2965;42.640;23.370;2022-11-20T13:21:19;93752.56;;;13.22;100.00
5879;BME280;2965;42.640;23.370;2022-11-20T13:23:45;93740.19;;;13.29;100.00
5879;BME280;2965;42.640;23.370;2022-11-20T13:26:17;93747.94;;;13.24;100.00
5879;BME280;2965;42.640;23.370;2022-11-20T13:28:45;93773.16;;;13.25;100.00
5879;BME280;2965;42.640;23.370;2022-11-20T13:31:31;93784.84;;;13.29;100.00
5879;BME280;2965;42.640;23.370;2022-11-20T13:33:57;93774.19;;;13.43;100.00
5879;BME280;2965;42.640;23.370;2022-11-20T13:36:26;93788.94;;;13.44;100.00
5879;BME280;2965;42.640;23.370;2022-11-20T13:38:54;93774.56;;;13.46;100.00
5879;BME280;2965;42.640;23.370;2022-11-20T13:41:29;93777.53;;;13.50;100.00
5879;BME280;2965;42.640;23.370;2022-11-20T13:44:24;93791.78;;;13.42;100.00
5879;BME280;2965;42.640;23.370;2022-11-20T13:46:50;93786.72;;;13.41;100.00
5879;BME280;2965;42.640;23.370;2022-11-20T13:49:37;93772.13;;;13.45;100.00
5879;BME280;2965;42.640;23.370;2022-11-20T13:55:05;93796.06;;;13.36;100.00
5879;BME280;2965;42.640;23.370;2022-11-20T14:00:17;93797.81;;;13.24;100.00
5879;BME280;2965;42.640;23.370;2022-11-20T14:02:51;93805.84;;;13.29;100.00
5879;BME280;2965;42.640;23.370;2022-11-20T14:05:23;93793.00;;;13.40;100.00
5879;BME280;2965;42.640;23.370;2022-11-20T14:07:50;93786.72;;;13.41;100.00
5879;BME280;2965;42.640;23.370;2022-11-20T14:10:27;93793.16;;;13.45;100.00
5879;BME280;2965;42.640;23.370;2022-11-20T14:12:54;93767.03;;;13.31;100.00
5879;BME280;2965;42.640;23.370;2022-11-20T14:15:31;93762.56;;;13.32;100.00
5879;BME280;2965;42.640;23.370;2022-11-20T14:17:58;93779.88;;;13.40;100.00
5879;BME280;2965;42.640;23.370;2022-11-20T14:20:27;93771.84;;;13.34;100.00
5879;BME280;2965;42.640;23.370;2022-11-20T14:22:54;93765.44;;;13.49;100.00
5879;BME280;2965;42.640;23.370;2022-11-20T14:25:22;93769.59;;;13.56;100.00
5879;BME280;2965;42.640;23.370;2022-11-20T14:27:59;93773.69;;;13.52;100.00
5879;BME280;2965;42.640;23.370;2022-11-20T14:30:28;93768.34;;;13.41;100.00
5879;BME280;2965;42.640;23.370;2022-11-20T14:32:56;93775.94;;;13.30;100.00
5879;BME280;2965;42.640;23.370;2022-11-20T14:35:44;93773.59;;;13.22;100.00
5879;BME280;2965;42.640;23.370;2022-11-20T14:38:13;93775.41;;;13.40;100.00
5879;BME280;2965;42.640;23.370;2022-11-20T14:40:38;93768.28;;;13.29;100.00
5879;BME280;2965;42.640;23.370;2022-11-20T14:43:28;93760.03;;;13.44;100.00
5879;BME280;2965;42.640;23.370;2022-11-20T14:46:03;93782.22;;;13.48;100.00
5879;BME280;2965;42.640;23.370;2022-11-20T14:48:41;93773.91;;;13.51;100.00
5879;BME280;2965;42.640;23.370;2022-11-20T14:51:22;93784.56;;;13.56;100.00
5879;BME280;2965;42.640;23.370;2022-11-20T14:53:48;93776.03;;;13.60;100.00
5879;BME280;2965;42.640;23.370;2022-11-20T14:56:21;93779.44;;;13.43;100.00
5879;BME280;2965;42.640;23.370;2022-11-20T14:58:55;93770.97;;;13.41;100.00
5879;BME280;2965;42.640;23.370;2022-11-20T15:01:28;93770.53;;;13.44;100.00
5879;BME280;2965;42.640;23.370;2022-11-20T15:04:05;93784.09;;;13.22;100.00
5879;BME280;2965;42.640;23.370;2022-11-20T15:06:31;93790.50;;;13.26;100.00
5879;BME280;2965;42.640;23.370;2022-11-20T15:08:57;93791.31;;;13.27;100.00
5879;BME280;2965;42.640;23.370;2022-11-20T15:11:33;93798.19;;;13.03;100.00
5879;BME280;2965;42.640;23.370;2022-11-20T15:14:04;93800.50;;;12.93;100.00
5879;BME280;2965;42.640;23.370;2022-11-20T15:16:31;93795.66;;;12.90;100.00
5879;BME280;2965;42.640;23.370;2022-11-20T15:18:57;93801.06;;;12.95;100.00
5879;BME280;2965;42.640;23.370;2022-11-20T15:21:22;93811.09;;;12.79;100.00
5879;BME280;2965;42.640;23.370;2022-11-20T15:23:48;93818.47;;;12.64;100.00
5879;BME280;2965;42.640;23.370;2022-11-20T15:26:20;93828.19;;;12.57;100.00
5879;BME280;2965;42.640;23.370;2022-11-20T15:28:48;93825.69;;;12.69;100.00
5879;BME280;2965;42.640;23.370;2022-11-20T15:31:18;93834.59;;;12.68;100.00
5879;BME280;2965;42.640;23.370;2022-11-20T15:33:44;93844.69;;;12.64;100.00
5879;BME280;2965;42.640;23.370;2022-11-20T15:36:10;93851.63;;;12.52;100.00
5879;BME280;2965;42.640;23.370;2022-11-20T15:38:36;93859.66;;;12.57;100.00
5879;BME280;2965;42.640;23.370;2022-11-20T15:41:01;93867.59;;;12.50;100.00
5879;BME280;2965;42.640;23.370;2022-11-20T15:43:27;93879.97;;;12.36;100.00
5879;BME280;2965;42.640;23.370;2022-11-20T15:46:04;93903.00;;;12.28;100.00
5879;BME280;2965;42.640;23.370;2022-11-20T15:48:42;93921.13;;;12.29;100.00
5879;BME280;2965;42.640;23.370;2022-11-20T15:51:28;93920.56;;;12.27;100.00
5879;BME280;2965;42.640;23.370;2022-11-20T15:53:55;93921.97;;;12.23;100.00
5879;BME280;2965;42.640;23.370;2022-11-20T15:56:20;93922.19;;;12.15;100.00
5879;BME280;2965;42.640;23.370;2022-11-20T15:58:46;93919.56;;;12.15;100.00
5879;BME280;2965;42.640;23.370;2022-11-20T16:01:14;93927.66;;;12.07;100.00
5879;BME280;2965;42.640;23.370;2022-11-20T16:03:40;93930.53;;;11.92;100.00
5879;BME280;2965;42.640;23.370;2022-11-20T16:06:06;93927.91;;;11.92;100.00
5879;BME280;2965;42.640;23.370;2022-11-20T16:08:31;93918.44;;;11.84;100.00
5879;BME280;2965;42.640;23.370;2022-11-20T16:10:57;93901.91;;;11.77;100.00
5879;BME280;2965;42.640;23.370;2022-11-20T16:13:22;93896.66;;;11.77;100.00
5879;BME280;2965;42.640;23.370;2022-11-20T16:16:07;93911.22;;;11.60;100.00
5879;BME280;2965;42.640;23.370;2022-11-20T16:18:36;93909.00;;;11.57;100.00
5879;BME280;2965;42.640;23.370;2022-11-20T16:21:02;93909.59;;;11.66;100.00
5879;BME280;2965;42.640;23.370;2022-11-20T16:23:28;93902.34;;;11.61;100.00
5879;BME280;2965;42.640;23.370;2022-11-20T16:25:53;93904.78;;;11.56;100.00
5879;BME280;2965;42.640;23.370;2022-11-20T16:28:19;93904.16;;;11.87;100.00
5879;BME280;2965;42.640;23.370;2022-11-20T16:30:44;93895.84;;;11.90;100.00
5879;BME280;2965;42.640;23.370;2022-11-20T16:33:14;93893.81;;;11.99;100.00
5879;BME280;2965;42.640;23.370;2022-11-20T16:35:41;93895.41;;;12.13;100.00
5879;BME280;2965;42.640;23.370;2022-11-20T16:38:06;93891.16;;;12.12;100.00
5879;BME280;2965;42.640;23.370;2022-11-20T16:40:32;93884.84;;;12.26;100.00
5879;BME280;2965;42.640;23.370;2022-11-20T16:42:57;93881.16;;;12.41;100.00
5879;BME280;2965;42.640;23.370;2022-11-20T16:45:31;93888.03;;;12.35;100.00
5879;BME280;2965;42.640;23.370;2022-11-20T16:47:56;93880.66;;;12.19;100.00
5879;BME280;2965;42.640;23.370;2022-11-20T16:50:22;93880.03;;;12.23;100.00
5879;BME280;2965;42.640;23.370;2022-11-20T16:52:47;93869.06;;;12.40;100.00
5879;BME280;2965;42.640;23.370;2022-11-20T16:55:13;93872.81;;;12.50;100.00
5879;BME280;2965;42.640;23.370;2022-11-20T16:57:38;93881.50;;;12.51;100.00
5879;BME280;2965;42.640;23.370;2022-11-20T17:00:07;93895.56;;;12.63;100.00
5879;BME280;2965;42.640;23.370;2022-11-20T17:02:32;93889.06;;;12.66;100.00
5879;BME280;2965;42.640;23.370;2022-11-20T17:04:58;93878.78;;;12.71;100.00
5879;BME280;2965;42.640;23.370;2022-11-20T17:07:23;93878.16;;;12.75;100.00
5879;BME280;2965;42.640;23.370;2022-11-20T17:09:48;93874.09;;;12.79;100.00
5879;BME280;2965;42.640;23.370;2022-11-20T17:12:14;93879.34;;;12.73;100.00
5879;BME280;2965;42.640;23.370;2022-11-20T17:14:39;93880.16;;;12.73;100.00
5879;BME280;2965;42.640;23.370;2022-11-20T17:17:04;93876.09;;;12.77;100.00
5879;BME280;2965;42.640;23.370;2022-11-20T17:19:30;93873.38;;;12.59;100.00
5879;BME280;2965;42.640;23.370;2022-11-20T17:21:55;93868.91;;;12.66;100.00
5879;BME280;2965;42.640;23.370;2022-11-20T17:24:20;93872.38;;;12.60;100.00
5879;BME280;2965;42.640;23.370;2022-11-20T17:26:47;93862.84;;;12.66;100.00
5879;BME280;2965;42.640;23.370;2022-11-20T17:29:14;93848.03;;;12.46;100.00
5879;BME280;2965;42.640;23.370;2022-11-20T17:31:41;93840.38;;;12.45;100.00
5879;BME280;2965;42.640;23.370;2022-11-20T17:34:10;93833.50;;;12.44;100.00
5879;BME280;2965;42.640;23.370;2022-11-20T17:36:36;93850.47;;;12.41;100.00
5879;BME280;2965;42.640;23.370;2022-11-20T17:39:04;93857.81;;;12.26;100.00
5879;BME280;2965;42.640;23.370;2022-11-20T17:41:30;93835.22;;;12.31;100.00
5879;BME280;2965;42.640;23.370;2022-11-20T17:43:57;93816.16;;;12.43;100.00
5879;BME280;2965;42.640;23.370;2022-11-20T17:46:33;93822.19;;;12.50;100.00
5879;BME280;2965;42.640;23.370;2022-11-20T17:49:00;93832.69;;;12.50;100.00
5879;BME280;2965;42.640;23.370;2022-11-20T17:51:28;93819.75;;;12.48;100.00
5879;BME280;2965;42.640;23.370;2022-11-20T17:53:56;93804.84;;;12.49;100.00
5879;BME280;2965;42.640;23.370;2022-11-20T17:59:10;93786.66;;;12.54;100.00
5879;BME280;2965;42.640;23.370;2022-11-20T18:01:36;93778.16;;;12.52;100.00
5879;BME280;2965;42.640;23.370;2022-11-20T18:04:02;93761.59;;;12.58;100.00
5879;BME280;2965;42.640;23.370;2022-11-20T18:06:29;93761.22;;;12.54;100.00
5879;BME280;2965;42.640;23.370;2022-11-20T18:09:01;93767.75;;;12.45;100.00
5879;BME280;2965;42.640;23.370;2022-11-20T18:11:31;93757.50;;;12.37;100.00
5879;BME280;2965;42.640;23.370;2022-11-20T18:14:01;93739.72;;;12.39;100.00
5879;BME280;2965;42.640;23.370;2022-11-20T18:16:49;93756.63;;;12.18;100.00
5879;BME280;2965;42.640;23.370;2022-11-20T18:19:19;93768.09;;;12.17;100.00
5879;BME280;2965;42.640;23.370;2022-11-20T18:21:45;93761.81;;;12.25;100.00
5879;BME280;2965;42.640;23.370;2022-11-20T18:24:11;93752.13;;;12.25;100.00
5879;BME280;2965;42.640;23.370;2022-11-20T18:26:36;93757.38;;;12.25;100.00
5879;BME280;2965;42.640;23.370;2022-11-20T18:29:02;93759.81;;;12.20;100.00
5879;BME280;2965;42.640;23.370;2022-11-20T18:31:27;93759.91;;;12.07;100.00
5879;BME280;2965;42.640;23.370;2022-11-20T18:33:53;93747.66;;;12.01;100.00
5879;BME280;2965;42.640;23.370;2022-11-20T18:36:22;93750.28;;;11.94;100.00
5879;BME280;2965;42.640;23.370;2022-11-20T18:38:49;93743.84;;;11.97;100.00
5879;BME280;2965;42.640;23.370;2022-11-20T18:41:17;93742.81;;;11.98;100.00
5879;BME280;2965;42.640;23.370;2022-11-20T18:44:02;93741.25;;;11.90;100.00
5879;BME280;2965;42.640;23.370;2022-11-20T18:46:47;93739.41;;;11.91;100.00
5879;BME280;2965;42.640;23.370;2022-11-20T18:49:13;93745.09;;;11.88;100.00
5879;BME280;2965;42.640;23.370;2022-11-20T18:51:39;93739.41;;;11.91;100.00
5879;BME280;2965;42.640;23.370;2022-11-20T18:54:05;93730.00;;;11.83;100.00
5879;BME280;2965;42.640;23.370;2022-11-20T18:56:31;93731.00;;;11.75;100.00
5879;BME280;2965;42.640;23.370;2022-11-20T18:58:58;93734.59;;;11.81;100.00
5879;BME280;2965;42.640;23.370;2022-11-20T19:01:24;93733.47;;;11.70;100.00
5879;BME280;2965;42.640;23.370;2022-11-20T19:03:49;93723.56;;;11.72;100.00
5879;BME280;2965;42.640;23.370;2022-11-20T19:06:16;93718.50;;;11.77;100.00
5879;BME280;2965;42.640;23.370;2022-11-20T19:08:41;93727.38;;;11.76;100.00
5879;BME280;2965;42.640;23.370;2022-11-20T19:11:08;93719.16;;;11.66;100.00
5879;BME280;2965;42.640;23.370;2022-11-20T19:13:35;93723.78;;;11.64;100.00
5879;BME280;2965;42.640;23.370;2022-11-20T19:16:02;93729.88;;;11.65;100.00
5879;BME280;2965;42.640;23.370;2022-11-20T19:18:27;93715.19;;;11.57;100.00
5879;BME280;2965;42.640;23.370;2022-11-20T19:20:53;93683.97;;;11.49;100.00
5879;BME280;2965;42.640;23.370;2022-11-20T19:23:18;93663.44;;;11.46;100.00
5879;BME280;2965;42.640;23.370;2022-11-20T19:25:46;93673.50;;;11.49;100.00
5879;BME280;2965;42.640;23.370;2022-11-20T19:28:11;93687.81;;;11.46;100.00
5879;BME280;2965;42.640;23.370;2022-11-20T19:30:37;93702.53;;;11.41;100.00
5879;BME280;2965;42.640;23.370;2022-11-20T19:33:02;93685.41;;;11.45;100.00
5879;BME280;2965;42.640;23.370;2022-11-20T19:35:28;93688.88;;;11.39;100.00
5879;BME280;2965;42.640;23.370;2022-11-20T19:37:53;93675.56;;;11.40;100.00
5879;BME280;2965;42.640;23.370;2022-11-20T19:40:22;93664.28;;;11.40;100.00
5879;BME280;2965;42.640;23.370;2022-11-20T19:42:47;93659.47;;;11.36;100.00
5879;BME280;2965;42.640;23.370;2022-11-20T19:45:13;93650.63;;;11.31;100.00
5879;BME280;2965;42.640;23.370;2022-11-20T19:47:38;93633.34;;;11.23;100.00
5879;BME280;2965;42.640;23.370;2022-11-20T19:50:04;93634.56;;;11.21;100.00